Time;durP1;ratioP1;P1;durP2;ratioP2;P2;SDS_P1;SDS_P2;PMS_P1;PMS_P2;Temp;Humidity;BMP_temperature;BMP_pressure;BME280_temperature;BME280_humidity;BME280_pressure;Samples;Min_cycle;Max_cycle;Signal;HPM_P1;HPM_P2
2023/06/28 00:01:17;;;;;;;5.10;0.68;;;;;;;12.77;52.57;101755.09;4962498;28;20445;-69
2023/06/28 00:03:43;;;;;;;4.70;0.45;;;;;;;12.48;53.28;101753.44;4960324;28;20041;-69
2023/06/28 00:06:08;;;;;;;5.05;0.60;;;;;;;12.68;52.97;101751.00;4964112;28;20443;-70
2023/06/28 00:08:33;;;;;;;2.85;0.50;;;;;;;12.77;52.82;101752.47;4959240;28;21095;-70
2023/06/28 00:10:59;;;;;;;3.90;0.55;;;;;;;12.73;52.59;101750.84;4960418;28;21534;-68
2023/06/28 00:13:25;;;;;;;4.50;0.60;;;;;;;12.58;52.84;101752.25;4961451;28;20034;-68
2023/06/28 00:15:50;;;;;;;4.90;1.02;;;;;;;12.53;53.26;101758.53;4959968;28;20042;-69
2023/06/28 00:18:16;;;;;;;2.58;0.63;;;;;;;12.57;53.22;101753.13;4961734;28;20053;-70
2023/06/28 00:20:41;;;;;;;5.68;0.47;;;;;;;12.63;52.83;101752.06;4957763;28;20285;-71
2023/06/28 00:23:08;;;;;;;4.28;0.43;;;;;;;12.70;52.79;101743.09;4963028;28;20470;-74
2023/06/28 00:25:33;;;;;;;3.22;0.40;;;;;;;12.62;52.95;101750.34;4961160;28;20034;-71
2023/06/28 00:27:59;;;;;;;5.57;0.57;;;;;;;12.64;52.93;101752.00;4962223;28;20123;-72
2023/06/28 00:30:24;;;;;;;1.75;0.68;;;;;;;12.63;52.88;101745.06;4978566;28;20157;-73
2023/06/28 00:32:50;;;;;;;6.07;0.60;;;;;;;12.67;52.71;101748.44;4947646;28;20420;-71
2023/06/28 00:35:16;;;;;;;2.88;0.85;;;;;;;12.52;53.21;101752.44;4975775;28;20160;-72
2023/06/28 00:37:44;;;;;;;4.05;0.73;;;;;;;12.47;53.14;101751.75;4958232;28;20480;-70
2023/06/28 00:40:10;;;;;;;4.50;0.80;;;;;;;12.43;52.84;101753.59;4949782;28;20030;-69
2023/06/28 00:42:36;;;;;;;4.70;0.80;;;;;;;12.34;53.80;101753.06;4959379;28;20034;-68
2023/06/28 00:45:01;;;;;;;1.55;0.90;;;;;;;12.37;53.40;101752.97;4962045;28;20371;-68
2023/06/28 00:47:28;;;;;;;4.20;0.80;;;;;;;12.21;54.32;101758.72;4959774;28;20055;-68
2023/06/28 00:49:55;;;;;;;9.52;1.20;;;;;;;11.89;55.14;101762.38;4962470;28;20074;-69
2023/06/28 00:52:21;;;;;;;5.65;1.52;;;;;;;12.10;54.53;101755.56;4976093;28;20525;-68
2023/06/28 00:54:46;;;;;;;5.88;0.70;;;;;;;12.26;53.95;101756.78;4959960;28;20129;-69
2023/06/28 00:57:12;;;;;;;5.50;1.23;;;;;;;12.13;53.92;101765.94;4962703;28;20041;-69
2023/06/28 00:59:38;;;;;;;4.30;1.25;;;;;;;12.18;53.95;101757.94;4961415;28;20606;-70
2023/06/28 01:02:04;;;;;;;4.72;0.90;;;;;;;11.92;54.91;101761.41;4961594;28;20388;-69
2023/06/28 01:04:29;;;;;;;2.53;0.95;;;;;;;12.04;54.76;101753.16;4959116;28;20691;-69
2023/06/28 01:06:59;;;;;;;5.00;1.08;;;;;;;12.04;55.00;101767.13;4962410;28;20117;-69
2023/06/28 01:09:27;;;;;;;5.85;0.98;;;;;;;11.86;54.88;101759.84;4975163;28;20054;-70
2023/06/28 01:11:55;;;;;;;2.90;1.00;;;;;;;11.86;55.23;101768.53;4961771;28;20038;-69
2023/06/28 01:14:23;;;;;;;3.85;1.08;;;;;;;11.90;55.15;101763.22;4958881;28;20443;-69
2023/06/28 01:16:54;;;;;;;8.13;1.58;;;;;;;11.64;55.78;101764.84;4971032;28;20038;-69
2023/06/28 01:19:23;;;;;;;6.03;1.40;;;;;;;11.73;55.66;101761.97;4962415;28;20081;-69
2023/06/28 01:21:50;;;;;;;4.03;1.38;;;;;;;11.76;55.11;101763.63;4961422;28;20042;-69
2023/06/28 01:24:17;;;;;;;4.15;0.95;;;;;;;11.73;55.55;101771.56;4960646;28;20541;-69
2023/06/28 01:26:43;;;;;;;4.63;1.40;;;;;;;11.49;56.10;101767.94;4977466;28;20682;-69
2023/06/28 01:29:08;;;;;;;6.22;1.15;;;;;;;11.32;56.85;101766.66;4976231;28;20100;-68
2023/06/28 01:31:36;;;;;;;8.77;1.58;;;;;;;11.42;56.82;101757.66;4947409;28;20614;-68
2023/06/28 01:34:02;;;;;;;4.25;1.98;;;;;;;11.46;56.83;101756.66;4959844;28;20127;-68
2023/06/28 01:36:28;;;;;;;3.50;1.83;;;;;;;11.66;56.38;101763.03;4963172;28;20164;-67
2023/06/28 01:38:55;;;;;;;6.53;1.70;;;;;;;11.74;56.11;101761.03;4963166;28;20039;-70
2023/06/28 01:41:21;;;;;;;4.40;2.10;;;;;;;11.84;55.91;101754.66;4943802;28;20064;-70
2023/06/28 01:43:47;;;;;;;4.00;1.55;;;;;;;11.70;55.97;101762.03;4962108;28;20045;-70
2023/06/28 01:46:15;;;;;;;5.70;1.65;;;;;;;11.71;56.54;101758.53;4960091;28;20038;-73
2023/06/28 01:48:41;;;;;;;13.07;3.03;;;;;;;11.49;56.40;101762.72;4963576;28;20058;-72
2023/06/28 01:51:06;;;;;;;8.32;2.33;;;;;;;11.62;56.53;101771.88;4982104;28;20038;-73
2023/06/28 01:53:32;;;;;;;11.93;2.35;;;;;;;11.65;56.71;101763.94;4966477;28;20069;-72
2023/06/28 01:55:57;;;;;;;4.13;1.35;;;;;;;11.78;56.05;101762.69;4944704;28;20105;-69
2023/06/28 01:58:23;;;;;;;3.40;1.73;;;;;;;11.87;55.89;101770.28;4964724;28;20046;-68
2023/06/28 02:00:48;;;;;;;12.70;2.85;;;;;;;11.68;56.50;101767.31;4966982;28;20057;-70
2023/06/28 02:03:14;;;;;;;5.20;1.95;;;;;;;11.76;56.48;101759.25;4965782;28;20423;-70
2023/06/28 02:05:42;;;;;;;4.40;1.38;;;;;;;11.88;55.57;101765.88;4967721;28;20487;-70
2023/06/28 02:08:07;;;;;;;10.73;2.42;;;;;;;11.90;55.84;101760.59;4964705;28;20101;-67
2023/06/28 02:10:33;;;;;;;4.78;1.80;;;;;;;11.86;55.86;101762.44;4964118;28;20043;-70
2023/06/28 02:12:58;;;;;;;5.97;2.22;;;;;;;11.84;55.94;101762.53;4961656;28;20038;-70
2023/06/28 02:15:24;;;;;;;6.13;1.70;;;;;;;11.93;55.91;101750.00;4964073;28;20203;-70
2023/06/28 02:17:50;;;;;;;4.50;2.10;;;;;;;11.94;56.06;101754.38;4962873;28;20038;-69
2023/06/28 02:20:15;;;;;;;13.27;3.13;;;;;;;12.08;55.74;101760.00;4962939;28;20101;-70
2023/06/28 02:22:41;;;;;;;12.02;2.40;;;;;;;12.04;55.44;101754.03;4978441;28;20118;-69
2023/06/28 02:25:07;;;;;;;5.85;2.47;;;;;;;11.99;55.70;101747.22;4963766;28;20573;-69
2023/06/28 02:27:32;;;;;;;8.25;2.40;;;;;;;11.96;55.68;101747.31;4963215;28;20037;-70
2023/06/28 02:30:01;;;;;;;6.22;2.67;;;;;;;11.98;55.92;101750.75;4964759;28;20617;-69
2023/06/28 02:32:30;;;;;;;11.25;3.17;;;;;;;11.96;55.56;101748.16;4950802;28;20090;-69
2023/06/28 02:34:58;;;;;;;8.27;2.80;;;;;;;11.91;55.67;101743.97;4950313;28;20042;-70
2023/06/28 02:37:24;;;;;;;10.05;3.60;;;;;;;11.77;55.77;101745.25;4962648;28;20064;-71
2023/06/28 02:39:50;;;;;;;8.38;2.72;;;;;;;11.55;56.57;101752.88;4965121;28;20054;-69
2023/06/28 02:42:15;;;;;;;12.15;3.60;;;;;;;11.60;56.97;101744.91;4962565;28;20042;-65
2023/06/28 02:44:41;;;;;;;2.90;2.05;;;;;;;11.61;57.12;101750.09;4977655;28;20073;-68
2023/06/28 02:47:07;;;;;;;7.05;3.58;;;;;;;11.84;56.54;101738.06;4981008;28;20058;-72
2023/06/28 02:49:32;;;;;;;10.43;3.05;;;;;;;11.96;56.03;101752.56;4977540;28;20042;-71
2023/06/28 02:51:58;;;;;;;5.63;2.92;;;;;;;11.97;55.58;101754.25;4969799;28;20030;-74
2023/06/28 02:54:24;;;;;;;5.07;2.67;;;;;;;11.97;55.91;101755.09;4961721;28;20125;-69
2023/06/28 02:56:49;;;;;;;7.80;3.25;;;;;;;11.84;56.12;101754.66;4965806;28;20034;-69
2023/06/28 02:59:41;;;;;;;4.45;2.80;;;;;;;11.96;55.93;101753.41;4963139;28;20038;-70
2023/06/28 03:02:08;;;;;;;6.97;2.85;;;;;;;12.08;55.76;101754.78;4961921;28;20390;-71
2023/06/28 03:04:39;;;;;;;13.82;3.50;;;;;;;12.17;55.33;101757.09;4960591;28;20046;-71
2023/06/28 03:07:07;;;;;;;9.38;3.55;;;;;;;12.08;55.53;101758.25;4964316;28;20034;-71
2023/06/28 03:09:33;;;;;;;7.38;3.65;;;;;;;11.88;55.88;101761.50;4977762;28;20049;-73
2023/06/28 03:12:01;;;;;;;10.13;2.72;;;;;;;11.98;55.64;101751.59;4949867;28;20104;-73
2023/06/28 03:14:27;;;;;;;7.50;2.75;;;;;;;11.94;55.67;101749.13;4962096;28;20038;-70
2023/06/28 03:16:52;;;;;;;6.82;3.05;;;;;;;12.02;56.08;101747.97;4963908;28;20039;-72
2023/06/28 03:19:18;;;;;;;6.43;2.53;;;;;;;12.00;55.96;101748.91;4962243;28;20038;-69
2023/06/28 03:21:44;;;;;;;8.88;3.42;;;;;;;11.94;56.52;101749.13;4962170;28;20247;-70
2023/06/28 03:24:10;;;;;;;5.80;3.08;;;;;;;12.11;55.87;101748.56;4961706;28;20046;-71
2023/06/28 03:26:36;;;;;;;7.90;3.42;;;;;;;12.23;55.71;101748.19;4961649;28;20054;-70
2023/06/28 03:29:03;;;;;;;6.50;3.55;;;;;;;12.21;55.29;101758.72;4976377;28;20039;-73
2023/06/28 03:31:31;;;;;;;11.57;4.40;;;;;;;12.17;55.63;101753.63;4965052;28;20050;-72
2023/06/28 03:33:58;;;;;;;9.05;3.55;;;;;;;12.21;55.73;101750.00;4959657;28;20378;-71
2023/06/28 03:36:27;;;;;;;8.57;3.45;;;;;;;12.21;55.79;101748.22;4964488;28;20414;-71
2023/06/28 03:38:53;;;;;;;8.48;3.25;;;;;;;12.33;55.63;101735.63;4962520;28;20928;-73
2023/06/28 03:41:18;;;;;;;6.53;3.38;;;;;;;12.40;55.40;101739.72;4959533;28;20034;-73
2023/06/28 03:43:44;;;;;;;8.82;3.13;;;;;;;12.55;55.19;101731.34;4962412;28;20042;-67
2023/06/28 03:46:09;;;;;;;8.65;3.60;;;;;;;12.54;54.86;101726.19;4960665;28;20130;-68
2023/06/28 03:48:34;;;;;;;8.27;3.50;;;;;;;12.45;55.01;101730.81;4962156;28;20066;-67
2023/06/28 03:51:02;;;;;;;12.77;4.32;;;;;;;12.63;54.85;101729.31;4942460;28;20037;-69
2023/06/28 03:53:27;;;;;;;4.35;3.15;;;;;;;12.73;54.50;101731.66;4964438;28;20129;-75
2023/06/28 03:55:53;;;;;;;9.88;3.08;;;;;;;12.96;54.02;101726.44;4963892;28;20041;-75
2023/06/28 03:58:19;;;;;;;5.72;2.90;;;;;;;13.08;54.17;101741.72;4963399;28;20050;-75
2023/06/28 04:00:44;;;;;;;5.68;3.05;;;;;;;13.21;53.67;101741.28;4967178;28;20407;-76
2023/06/28 04:03:10;;;;;;;8.38;3.33;;;;;;;13.19;53.74;101738.72;4963529;28;20042;-75
2023/06/28 04:05:35;;;;;;;4.90;3.65;;;;;;;12.89;53.78;101744.19;4962711;28;20044;-71
2023/06/28 04:08:02;;;;;;;6.35;2.97;;;;;;;13.31;53.90;101732.97;4965149;28;20037;-73
2023/06/28 04:10:27;;;;;;;6.72;3.45;;;;;;;13.10;54.42;101733.81;4963301;28;20493;-72
2023/06/28 04:12:53;;;;;;;13.13;3.60;;;;;;;13.30;53.78;101735.69;4961756;28;20046;-70
2023/06/28 04:15:19;;;;;;;6.30;3.28;;;;;;;13.22;53.62;101735.09;4961494;28;20045;-71
2023/06/28 04:17:44;;;;;;;7.47;4.43;;;;;;;13.17;53.45;101739.69;4963128;28;20792;-71
2023/06/28 04:20:10;;;;;;;7.82;3.38;;;;;;;13.18;53.86;101736.97;4963373;28;20117;-71
2023/06/28 04:22:36;;;;;;;11.43;3.42;;;;;;;13.27;54.28;101735.78;4962938;28;20479;-70
2023/06/28 04:25:02;;;;;;;9.23;3.38;;;;;;;13.26;54.13;101728.84;4963981;28;20186;-70
2023/06/28 04:27:28;;;;;;;6.70;2.95;;;;;;;12.99;54.54;101736.81;4961840;28;20049;-71
2023/06/28 04:29:53;;;;;;;8.82;2.75;;;;;;;13.07;54.87;101729.53;4964415;28;20041;-70
2023/06/28 04:32:26;;;;;;;10.73;2.80;;;;;;;13.41;54.44;101728.25;4962589;28;20042;-71
2023/06/28 04:34:53;;;;;;;10.13;3.75;;;;;;;13.40;53.67;101734.41;4962106;28;20233;-70
2023/06/28 04:37:20;;;;;;;8.63;2.75;;;;;;;13.82;53.65;101727.56;4964744;28;20045;-70
2023/06/28 04:39:46;;;;;;;8.88;2.92;;;;;;;14.08;52.75;101719.47;4960768;28;20498;-73
2023/06/28 04:42:14;;;;;;;7.47;3.40;;;;;;;13.87;52.84;101726.44;4982457;28;20248;-72
2023/06/28 04:44:44;;;;;;;8.93;3.88;;;;;;;14.35;52.21;101725.34;4962566;28;20125;-70
2023/06/28 04:47:15;;;;;;;7.80;2.35;;;;;;;14.41;51.44;101721.66;4963662;28;20560;-69
2023/06/28 04:49:49;;;;;;;9.10;2.97;;;;;;;14.60;51.75;101737.47;4961972;28;20030;-69
2023/06/28 04:52:18;;;;;;;8.23;2.45;;;;;;;14.46;51.74;101743.34;4959965;28;20048;-69
2023/06/28 04:54:44;;;;;;;7.10;2.42;;;;;;;14.54;51.34;101750.88;4959924;28;20038;-69
2023/06/28 04:57:10;;;;;;;6.75;2.00;;;;;;;14.67;50.99;101738.91;4962329;28;20121;-68
2023/06/28 04:59:36;;;;;;;7.35;1.80;;;;;;;14.90;50.91;101745.81;4960157;28;20121;-71
2023/06/28 05:02:05;;;;;;;11.05;2.47;;;;;;;14.63;50.97;101732.06;4980471;28;20058;-71
2023/06/28 05:04:32;;;;;;;6.93;2.08;;;;;;;14.58;51.75;101727.94;4959796;28;20035;-70
2023/06/28 05:07:03;;;;;;;13.13;2.75;;;;;;;14.29;51.56;101730.84;4962734;28;20038;-71
2023/06/28 05:09:29;;;;;;;7.97;2.23;;;;;;;15.11;50.20;101732.59;4974354;28;20075;-69
2023/06/28 05:11:54;;;;;;;7.00;2.08;;;;;;;16.74;45.79;101724.69;4962614;28;20567;-70
2023/06/28 05:14:20;;;;;;;8.10;2.03;;;;;;;17.41;44.22;101726.34;4959342;28;20065;-69
2023/06/28 05:16:45;;;;;;;6.57;1.73;;;;;;;17.53;44.33;101724.81;4948824;28;20330;-70
2023/06/28 05:19:11;;;;;;;7.38;1.92;;;;;;;17.16;44.31;101724.19;4967767;28;20126;-73
2023/06/28 05:21:37;;;;;;;5.07;1.40;;;;;;;16.90;45.36;101720.31;4963708;28;20050;-68
2023/06/28 05:24:03;;;;;;;4.15;2.05;;;;;;;16.68;45.85;101720.56;4976155;28;20058;-68
2023/06/28 05:26:29;;;;;;;4.97;1.50;;;;;;;16.38;45.87;101723.88;4961455;28;20042;-68
2023/06/28 05:28:55;;;;;;;6.93;2.17;;;;;;;16.54;46.13;101723.94;4966236;28;20152;-67
2023/06/28 05:31:21;;;;;;;9.55;2.13;;;;;;;16.55;45.54;101719.50;4964493;28;20442;-68
2023/06/28 05:33:46;;;;;;;9.45;1.95;;;;;;;16.52;46.01;101724.94;4965644;28;20342;-70
2023/06/28 05:36:12;;;;;;;5.22;1.83;;;;;;;15.85;47.73;101724.72;4964720;28;20039;-69
2023/06/28 05:38:37;;;;;;;4.65;1.77;;;;;;;16.25;47.74;101721.94;4964783;28;20073;-68
2023/06/28 05:41:20;;;;;;;3.83;1.80;;;;;;;16.85;46.53;101729.44;4968017;28;20030;-70
2023/06/28 05:43:46;;;;;;;4.03;2.22;;;;;;;16.65;45.72;101733.94;4964102;28;20048;-69
2023/06/28 05:46:12;;;;;;;7.22;2.25;;;;;;;16.71;46.23;101732.75;4964195;28;20687;-67
2023/06/28 05:48:38;;;;;;;7.43;1.38;;;;;;;16.91;45.97;101726.44;4964074;28;20085;-73
2023/06/28 05:51:09;;;;;;;3.58;1.30;;;;;;;16.36;46.46;101731.00;4968632;28;20061;-73
2023/06/28 05:53:44;;;;;;;7.15;2.53;;;;;;;16.31;46.88;101722.47;4965961;28;20042;-73
2023/06/28 05:56:09;;;;;;;7.80;2.05;;;;;;;16.54;46.23;101723.09;4969016;28;20041;-72
2023/06/28 05:58:35;;;;;;;6.68;1.42;;;;;;;16.65;46.14;101718.09;4965167;28;20047;-72
2023/06/28 06:01:01;;;;;;;5.80;1.73;;;;;;;17.35;44.71;101712.59;4966523;28;20030;-67
2023/06/28 06:03:26;;;;;;;10.93;1.63;;;;;;;17.09;44.62;101714.91;4963035;28;20286;-69
2023/06/28 06:05:53;;;;;;;5.97;1.20;;;;;;;17.58;43.65;101713.97;4965761;28;20072;-70
2023/06/28 06:08:19;;;;;;;4.70;1.10;;;;;;;17.00;44.50;101710.97;4961577;28;20522;-69
2023/06/28 06:10:44;;;;;;;5.32;1.02;;;;;;;17.14;43.87;101712.84;4965635;28;20042;-69
2023/06/28 06:13:10;;;;;;;7.95;1.42;;;;;;;17.42;43.34;101719.25;4979435;28;20066;-69
2023/06/28 06:15:35;;;;;;;5.90;1.30;;;;;;;17.40;42.00;101718.47;4960755;28;20490;-68
2023/06/28 06:18:01;;;;;;;4.30;0.95;;;;;;;17.71;41.74;101715.00;4965591;28;20089;-73
2023/06/28 06:20:26;;;;;;;7.13;0.80;;;;;;;18.20;41.63;101716.63;4964086;28;20070;-67
2023/06/28 06:22:51;;;;;;;3.00;0.73;;;;;;;18.09;40.53;101711.91;4960850;28;20515;-68
2023/06/28 06:25:17;;;;;;;6.90;0.88;;;;;;;17.26;41.92;101710.47;4962049;28;20554;-69
2023/06/28 06:27:42;;;;;;;6.45;0.70;;;;;;;17.86;42.58;101715.91;4963506;28;20532;-68
2023/06/28 06:30:13;;;;;;;3.80;1.05;;;;;;;17.53;41.75;101718.69;4965625;28;20042;-68
2023/06/28 06:32:39;;;;;;;4.03;0.93;;;;;;;17.56;41.59;101719.38;4963133;28;20033;-69
2023/06/28 06:35:06;;;;;;;6.53;0.70;;;;;;;16.47;43.84;101727.81;4963911;28;20556;-70
2023/06/28 06:37:32;;;;;;;6.22;0.80;;;;;;;17.12;42.80;101714.72;4962952;28;20396;-69
2023/06/28 06:39:57;;;;;;;4.30;0.40;;;;;;;17.31;42.25;101721.63;4963825;28;20056;-69
2023/06/28 06:42:23;;;;;;;7.13;1.05;;;;;;;17.43;41.53;101726.25;4963859;28;20471;-69
2023/06/28 06:44:49;;;;;;;8.20;1.00;;;;;;;17.34;41.86;101724.97;4958671;28;20497;-68
2023/06/28 06:47:15;;;;;;;8.35;0.90;;;;;;;17.31;41.52;101721.63;4961802;28;20062;-71
2023/06/28 06:49:41;;;;;;;3.92;0.47;;;;;;;17.30;42.28;101722.59;4961009;28;20518;-70
2023/06/28 06:52:07;;;;;;;3.58;0.38;;;;;;;17.58;40.09;101728.06;4964255;28;20113;-69
2023/06/28 06:54:33;;;;;;;2.80;0.55;;;;;;;16.88;41.42;101737.19;4973270;28;20045;-69
2023/06/28 06:56:59;;;;;;;1.55;0.20;;;;;;;17.31;40.99;101740.13;4963970;28;20037;-68
2023/06/28 06:59:26;;;;;;;3.47;0.50;;;;;;;17.16;41.68;101741.84;4962307;28;20094;-68
2023/06/28 07:01:52;;;;;;;4.03;0.32;;;;;;;16.19;43.07;101745.03;4959308;28;20039;-69
2023/06/28 07:04:19;;;;;;;2.60;0.40;;;;;;;16.51;41.85;101744.34;4961910;28;20038;-69
2023/06/28 07:06:46;;;;;;;2.97;0.30;;;;;;;16.16;42.82;101749.63;4963967;28;20038;-70
2023/06/28 07:09:14;;;;;;;4.00;0.43;;;;;;;16.34;42.57;101751.34;4964057;28;20058;-70
2023/06/28 07:11:40;;;;;;;0.95;0.28;;;;;;;16.85;42.06;101750.56;4963439;28;20026;-69
2023/06/28 07:14:06;;;;;;;1.85;0.20;;;;;;;16.67;41.97;101761.09;4963525;28;20074;-69
2023/06/28 07:16:32;;;;;;;2.17;0.40;;;;;;;16.82;40.20;101751.53;4956185;28;20115;-67
2023/06/28 07:18:57;;;;;;;2.63;0.30;;;;;;;16.81;39.56;101755.13;4963256;28;20045;-69
2023/06/28 07:21:23;;;;;;;1.48;0.30;;;;;;;16.85;39.97;101751.41;4956866;28;20045;-68
2023/06/28 07:23:49;;;;;;;0.60;0.30;;;;;;;17.19;39.56;101761.00;4960345;28;20614;-69
2023/06/28 07:26:14;;;;;;;2.83;0.40;;;;;;;17.67;39.11;101760.19;4962263;28;20069;-71
2023/06/28 07:28:40;;;;;;;4.05;0.30;;;;;;;17.68;38.29;101756.63;4943562;28;20051;-69
2023/06/28 07:31:06;;;;;;;2.67;0.73;;;;;;;17.90;38.80;101761.56;4979793;28;20089;-69
2023/06/28 07:33:32;;;;;;;1.23;0.32;;;;;;;18.35;38.37;101760.69;4973903;28;20041;-69
2023/06/28 07:35:58;;;;;;;1.73;0.40;;;;;;;18.59;38.11;101763.69;4960018;28;20443;-70
2023/06/28 07:38:23;;;;;;;4.43;0.50;;;;;;;18.58;38.55;101761.13;4961241;28;20070;-70
2023/06/28 07:40:49;;;;;;;2.53;0.80;;;;;;;18.19;38.47;101759.91;4961717;28;20034;-70
2023/06/28 07:43:16;;;;;;;2.75;0.40;;;;;;;18.24;39.47;101763.13;4963363;28;20042;-71
2023/06/28 07:45:42;;;;;;;3.20;0.50;;;;;;;18.71;37.98;101756.78;4956981;28;20041;-71
2023/06/28 07:48:08;;;;;;;1.35;0.60;;;;;;;18.82;37.53;101754.31;4959574;28;20069;-71
2023/06/28 07:50:34;;;;;;;3.53;0.90;;;;;;;18.52;37.51;101764.13;4957702;28;20402;-72
2023/06/28 07:52:59;;;;;;;3.55;0.50;;;;;;;17.73;39.84;101767.78;4959089;28;20470;-70
2023/06/28 07:55:25;;;;;;;5.53;0.40;;;;;;;18.03;38.63;101760.75;4957703;28;20042;-70
2023/06/28 07:57:50;;;;;;;1.08;0.30;;;;;;;17.70;39.22;101763.53;4958448;28;20153;-70
2023/06/28 08:00:16;;;;;;;3.13;0.80;;;;;;;18.16;38.48;101760.03;4963105;28;20094;-70
2023/06/28 08:02:42;;;;;;;3.83;0.73;;;;;;;19.20;36.42;101752.94;4960270;28;20127;-71
2023/06/28 08:05:08;;;;;;;1.23;0.43;;;;;;;19.58;36.10;101761.13;4964811;28;20027;-71
2023/06/28 08:07:34;;;;;;;3.80;0.40;;;;;;;18.86;37.14;101758.50;4958877;28;20515;-71
2023/06/28 08:09:59;;;;;;;4.68;0.70;;;;;;;18.01;38.77;101752.06;4962292;28;20623;-69
2023/06/28 08:12:25;;;;;;;2.25;0.40;;;;;;;17.98;37.51;101748.72;4979322;28;20332;-69
2023/06/28 08:14:50;;;;;;;2.80;0.40;;;;;;;18.65;37.90;101763.31;4959175;28;20046;-70
2023/06/28 08:17:16;;;;;;;3.90;1.00;;;;;;;18.76;37.50;101760.00;4977812;28;20125;-70
2023/06/28 08:19:41;;;;;;;3.83;0.65;;;;;;;19.62;34.40;101757.31;4960227;28;20102;-69
2023/06/28 08:22:07;;;;;;;2.72;0.30;;;;;;;19.91;36.29;101743.97;4964251;28;20034;-70
2023/06/28 08:24:33;;;;;;;4.30;0.50;;;;;;;20.37;35.39;101745.34;4955962;28;20888;-70
2023/06/28 08:26:58;;;;;;;3.45;0.90;;;;;;;20.41;34.89;101747.69;4964033;28;20065;-70
2023/06/28 08:29:25;;;;;;;2.25;0.50;;;;;;;20.96;33.35;101753.69;4961998;28;20057;-70
2023/06/28 08:31:50;;;;;;;3.88;0.55;;;;;;;20.62;33.33;101755.13;4962579;28;20046;-70
2023/06/28 08:34:20;;;;;;;4.50;0.93;;;;;;;20.92;33.90;101753.03;4959749;28;20064;-69
2023/06/28 08:36:45;;;;;;;2.58;0.80;;;;;;;20.84;32.68;101744.78;4958455;28;20463;-70
2023/06/28 08:39:10;;;;;;;2.15;1.77;;;;;;;20.47;33.47;101749.94;4962379;28;20049;-71
2023/06/28 08:41:36;;;;;;;1.45;0.60;;;;;;;19.52;36.14;101758.81;4971596;28;20509;-69
2023/06/28 08:44:05;;;;;;;2.35;0.63;;;;;;;19.71;35.42;101761.19;4964420;28;20419;-69
2023/06/28 08:46:30;;;;;;;5.90;0.65;;;;;;;20.32;36.01;101761.59;4955091;28;20105;-69
2023/06/28 08:48:57;;;;;;;4.07;1.48;;;;;;;19.44;35.48;101753.19;4937260;28;20045;-68
2023/06/28 08:51:25;;;;;;;6.68;0.50;;;;;;;20.43;34.88;101751.09;4961576;28;20492;-69
2023/06/28 08:53:52;;;;;;;5.10;1.23;;;;;;;20.98;34.19;101750.94;4958816;28;20037;-70
2023/06/28 08:56:17;;;;;;;6.10;0.80;;;;;;;20.33;34.36;101745.56;4961066;28;20061;-70
2023/06/28 08:58:47;;;;;;;1.88;0.40;;;;;;;18.86;37.65;101755.84;4954279;28;20030;-70
2023/06/28 09:01:12;;;;;;;2.58;0.75;;;;;;;18.91;37.66;101752.09;4963166;28;20030;-70
2023/06/28 09:03:42;;;;;;;5.32;0.88;;;;;;;19.20;37.63;101750.28;4960790;28;20037;-68
2023/06/28 09:06:09;;;;;;;2.17;1.00;;;;;;;19.20;36.75;101758.22;4966575;28;20030;-69
2023/06/28 09:08:35;;;;;;;3.22;0.40;;;;;;;18.32;39.02;101760.00;4958947;28;21334;-70
2023/06/28 09:11:02;;;;;;;8.23;1.05;;;;;;;18.27;39.39;101752.34;4967380;28;20061;-69
2023/06/28 09:13:28;;;;;;;3.63;1.00;;;;;;;18.97;39.19;101757.03;4975702;28;20045;-68
2023/06/28 09:15:55;;;;;;;3.25;0.63;;;;;;;20.47;36.72;101752.59;4962694;28;20042;-69
2023/06/28 09:18:21;;;;;;;6.18;1.10;;;;;;;20.12;36.07;101750.47;4961411;28;20073;-69
2023/06/28 09:20:51;;;;;;;3.58;0.60;;;;;;;20.98;34.58;101745.63;4961854;28;20034;-70
2023/06/28 09:23:28;;;;;;;8.95;1.55;;;;;;;21.55;34.04;101748.53;4960734;28;20149;-70
2023/06/28 09:25:54;;;;;;;4.15;0.85;;;;;;;20.80;34.58;101759.19;4978292;28;20129;-69
2023/06/28 09:28:23;;;;;;;2.80;1.05;;;;;;;20.58;36.06;101751.03;4964204;28;20043;-69
2023/06/28 09:30:55;;;;;;;2.88;1.15;;;;;;;21.25;35.44;101754.25;4959005;28;20271;-70
2023/06/28 09:33:24;;;;;;;4.93;1.10;;;;;;;21.38;35.28;101748.03;4961991;28;20042;-70
2023/06/28 09:35:55;;;;;;;3.15;1.00;;;;;;;20.11;36.42;101754.09;4976854;28;20385;-70
2023/06/28 09:38:22;;;;;;;1.90;0.93;;;;;;;21.16;35.32;101749.59;4962132;28;20046;-70
2023/06/28 09:41:00;;;;;;;3.95;1.27;;;;;;;20.90;35.27;101752.28;4955021;28;20833;-67
2023/06/28 09:43:34;;;;;;;5.03;1.25;;;;;;;20.84;35.35;101749.19;4979588;28;20051;-70
2023/06/28 09:46:14;;;;;;;5.55;1.38;;;;;;;20.36;36.92;101757.78;4962699;28;20034;-71
2023/06/28 09:48:45;;;;;;;5.95;1.05;;;;;;;20.85;35.44;101753.59;4946852;28;20898;-72
2023/06/28 09:51:11;;;;;;;6.73;1.13;;;;;;;21.05;34.62;101752.19;4963967;28;20563;-71
2023/06/28 09:53:49;;;;;;;4.95;0.95;;;;;;;20.87;34.62;101746.38;4959726;28;20121;-71
2023/06/28 09:56:16;;;;;;;3.05;0.80;;;;;;;20.65;35.32;101753.13;4961770;28;20138;-72
2023/06/28 09:58:45;;;;;;;1.92;1.05;;;;;;;20.80;35.02;101745.91;4958806;28;20559;-70
2023/06/28 10:01:11;;;;;;;4.00;0.98;;;;;;;21.11;34.88;101747.28;4962208;28;20030;-70
2023/06/28 10:03:38;;;;;;;4.40;1.17;;;;;;;21.05;34.67;101746.88;4958617;28;20767;-71
2023/06/28 10:06:07;;;;;;;2.33;0.90;;;;;;;20.72;36.08;101758.88;4961657;28;20729;-68
2023/06/28 10:08:32;;;;;;;2.08;0.85;;;;;;;21.31;34.88;101755.63;4956406;28;20097;-69
2023/06/28 10:10:58;;;;;;;2.90;1.00;;;;;;;20.38;36.37;101755.03;4962654;28;20935;-70
2023/06/28 10:13:26;;;;;;;6.32;1.45;;;;;;;20.71;35.87;101759.84;4956719;28;20045;-68
2023/06/28 10:16:09;;;;;;;2.92;1.20;;;;;;;19.48;37.56;101763.50;4960334;28;20490;-67
2023/06/28 10:18:34;;;;;;;4.00;1.10;;;;;;;19.81;36.87;101764.09;4954049;28;20045;-70
2023/06/28 10:21:01;;;;;;;3.22;1.25;;;;;;;19.82;37.53;101766.63;4980637;28;20034;-68
2023/06/28 10:23:26;;;;;;;3.78;0.85;;;;;;;20.48;36.55;101756.94;4958309;28;20551;-67
2023/06/28 10:25:54;;;;;;;4.82;1.85;;;;;;;19.29;39.22;101755.84;4957173;28;20049;-70
2023/06/28 10:28:20;;;;;;;3.50;1.20;;;;;;;19.23;38.88;101758.03;4938515;28;20077;-70
2023/06/28 10:30:47;;;;;;;6.68;1.77;;;;;;;19.02;39.27;101757.59;4964947;28;20122;-68
2023/06/28 10:33:17;;;;;;;6.93;1.20;;;;;;;18.31;40.79;101758.31;4980299;28;20128;-68
2023/06/28 10:35:44;;;;;;;2.53;1.13;;;;;;;19.36;38.81;101753.66;4957940;28;20189;-70
2023/06/28 10:38:10;;;;;;;3.40;1.75;;;;;;;19.82;37.84;101753.38;4962811;28;20039;-70
2023/06/28 10:40:37;;;;;;;4.63;1.83;;;;;;;20.76;36.60;101757.69;4958034;28;20038;-70
2023/06/28 10:43:03;;;;;;;4.07;1.33;;;;;;;21.07;35.97;101755.59;4961507;28;20042;-72
2023/06/28 10:45:37;;;;;;;3.60;0.90;;;;;;;20.99;36.32;101747.28;4962109;28;20418;-68
2023/06/28 10:48:04;;;;;;;5.95;1.38;;;;;;;20.17;36.76;101758.13;4962049;28;20085;-68
2023/06/28 10:50:41;;;;;;;7.13;1.25;;;;;;;19.96;37.32;101747.16;4948533;28;20050;-70
2023/06/28 10:53:18;;;;;;;4.13;1.75;;;;;;;19.75;38.35;101760.03;4960518;28;20807;-69
2023/06/28 10:56:19;;;;;;;4.32;2.00;;;;;;;19.77;37.87;101768.75;4978200;28;20034;-70
2023/06/28 10:58:47;;;;;;;4.95;1.85;;;;;;;19.02;39.35;101760.25;4932517;28;20051;-67
2023/06/28 11:01:31;;;;;;;4.97;1.98;;;;;;;18.62;40.57;101762.63;4958293;28;20515;-68
2023/06/28 11:04:23;;;;;;;4.75;2.45;;;;;;;19.00;39.87;101762.13;4937124;28;20572;-69
2023/06/28 11:07:09;;;;;;;;;;;;;;;19.78;38.21;101761.63;4959728;28;20398;-70
2023/06/28 11:09:35;;;;;;;3.60;2.10;;;;;;;19.33;38.94;101761.81;4958107;28;21047;-71
2023/06/28 11:12:01;;;;;;;5.75;2.30;;;;;;;19.67;39.37;101757.03;4959448;28;20034;-71
2023/06/28 11:14:31;;;;;;;4.65;2.08;;;;;;;19.26;39.13;101760.50;4962351;28;20101;-71
2023/06/28 11:17:02;;;;;;;3.65;1.65;;;;;;;19.32;39.03;101767.19;4974717;28;20746;-72
2023/06/28 11:19:29;;;;;;;5.55;1.95;;;;;;;18.66;40.85;101764.16;4960349;28;20668;-71
2023/06/28 11:21:59;;;;;;;6.15;1.75;;;;;;;19.13;39.44;101773.66;4957082;28;20096;-70
2023/06/28 11:24:45;;;;;;;7.68;1.83;;;;;;;18.88;40.48;101759.28;4960177;28;20504;-71